Terminal Aerodrome Forecast
Issued by NWS Jackson, KY

Home | Current Version | Previous Version | Text Only | Print | Product List | Glossary On
Versions: 1 2 3 4 5 6 7 8 9 10 11 12 13 14 15 16 17
102
FTUS43 KJKL 010520
TAFJKL
TAF
KJKL 010520Z 0106/0206 26005KT P6SM SCT030 BKN040
     FM011700 26008G15KT P6SM SCT035
     FM012300 26003KT P6SM SCT150=

USA.gov is the U.S. government's official web portal to all federal, state and local government web resources and services.